Time;durP1;ratioP1;P1;durP2;ratioP2;P2;SDS_P1;SDS_P2;PMS_P1;PMS_P2;Temp;Humidity;BMP_temperature;BMP_pressure;BME280_temperature;BME280_humidity;BME280_pressure;Samples;Min_cycle;Max_cycle;Signal;HPM_P1;HPM_P2
2024/01/13 00:02:48;;;;;;;3.42;1.45;;;;;;;-148.68;100.00;62903.81;4978814;28;20487;-93
2024/01/13 00:06:12;;;;;;;3.05;1.25;;;;;;;-148.68;100.00;62903.81;4962269;28;20030;-93
2024/01/13 00:09:36;;;;;;;3.58;1.40;;;;;;;-148.68;100.00;62903.81;4962206;28;20023;-93
2024/01/13 00:13:00;;;;;;;3.50;2.22;;;;;;;-148.68;100.00;62903.81;4962506;28;20030;-93
2024/01/13 00:16:24;;;;;;;3.10;1.50;;;;;;;-148.68;100.00;62903.81;4962288;28;20432;-92
2024/01/13 00:19:48;;;;;;;5.03;2.30;;;;;;;-148.68;100.00;62903.81;4962375;28;20118;-92
2024/01/13 00:23:11;;;;;;;5.35;1.48;;;;;;;-148.68;100.00;62903.81;4962023;28;20029;-92
2024/01/13 00:26:35;;;;;;;3.92;1.75;;;;;;;-148.68;100.00;62903.81;4962019;28;20031;-92
2024/01/13 00:30:00;;;;;;;2.42;1.30;;;;;;;-148.68;100.00;62903.81;4961887;28;20023;-92
2024/01/13 00:33:23;;;;;;;2.38;1.20;;;;;;;-148.68;100.00;62903.81;4961944;28;20105;-92
2024/01/13 00:36:47;;;;;;;4.10;1.52;;;;;;;-148.68;100.00;62903.81;4962245;28;20023;-92
2024/01/13 00:40:12;;;;;;;3.45;1.45;;;;;;;-148.68;100.00;62903.81;4962186;28;20026;-93
2024/01/13 00:43:37;;;;;;;2.72;1.13;;;;;;;-148.68;100.00;62903.81;4977537;28;20023;-93
2024/01/13 00:47:01;;;;;;;1.33;0.93;;;;;;;-148.68;100.00;62903.81;4978040;28;20035;-92
2024/01/13 00:50:25;;;;;;;2.42;1.20;;;;;;;-148.68;100.00;62903.81;4961956;28;20031;-93
2024/01/13 00:53:49;;;;;;;3.70;1.38;;;;;;;-148.68;100.00;62903.81;4961683;28;20114;-93
2024/01/13 00:57:13;;;;;;;2.10;1.10;;;;;;;-148.68;100.00;62903.81;4961877;28;20440;-93
2024/01/13 01:00:37;;;;;;;2.70;1.55;;;;;;;-148.68;100.00;62903.81;4961286;28;20035;-94
2024/01/13 01:04:00;;;;;;;3.08;1.17;;;;;;;-148.68;100.00;62903.81;4961502;28;20030;-93
2024/01/13 01:07:26;;;;;;;2.60;1.20;;;;;;;-148.68;100.00;62903.81;4961610;28;20031;-92
2024/01/13 01:10:49;;;;;;;3.53;1.25;;;;;;;-148.68;100.00;62903.81;4961607;28;20038;-93
2024/01/13 01:14:13;;;;;;;3.10;1.30;;;;;;;-148.68;100.00;62903.81;4961735;28;20030;-93
2024/01/13 01:17:37;;;;;;;3.78;1.02;;;;;;;-148.68;100.00;62903.81;4977353;28;20474;-93
2024/01/13 01:21:02;;;;;;;2.17;1.00;;;;;;;-148.68;100.00;62903.81;4961533;28;20023;-92
2024/01/13 01:24:26;;;;;;;2.10;1.30;;;;;;;-148.68;100.00;62903.81;4961501;28;20031;-93
2024/01/13 01:27:49;;;;;;;1.77;1.00;;;;;;;-148.68;100.00;62903.81;4961386;28;20034;-92
2024/01/13 01:31:13;;;;;;;1.90;0.85;;;;;;;-148.68;100.00;62903.81;4961276;28;20038;-92
2024/01/13 01:34:37;;;;;;;2.85;1.00;;;;;;;-148.68;100.00;62903.81;4961392;28;20030;-92
2024/01/13 01:38:01;;;;;;;1.92;0.85;;;;;;;-148.68;100.00;62903.81;4977627;28;20117;-91
2024/01/13 01:41:27;;;;;;;2.08;1.10;;;;;;;-148.68;100.00;62903.81;4977120;28;20023;-92
2024/01/13 01:44:51;;;;;;;2.83;1.00;;;;;;;-148.68;100.00;62903.81;4961108;28;20030;-92
2024/01/13 01:48:19;;;;;;;1.52;0.85;;;;;;;-148.68;100.00;62903.81;4961185;28;20035;-92
2024/01/13 01:51:43;;;;;;;3.00;0.85;;;;;;;-148.68;100.00;62903.81;4976973;28;20034;-92
2024/01/13 01:55:08;;;;;;;;;;;;;;;-148.68;100.00;62903.81;4977376;28;20027;-91
2024/01/13 01:58:34;;;;;;;1.67;0.95;;;;;;;-148.68;100.00;62903.81;4976900;28;19965;-93
2024/01/13 02:02:00;;;;;;;1.73;0.90;;;;;;;-148.68;100.00;62903.81;4977089;28;20034;-92
2024/01/13 02:05:24;;;;;;;1.48;0.90;;;;;;;-148.68;100.00;62903.81;4976722;28;20114;-92
2024/01/13 02:08:48;;;;;;;3.33;1.30;;;;;;;-148.68;100.00;62903.81;4996158;28;20038;-92
2024/01/13 02:12:12;;;;;;;1.55;0.70;;;;;;;-148.68;100.00;62903.81;4997830;28;20053;-93
2024/01/13 02:15:36;;;;;;;3.47;1.13;;;;;;;-148.68;100.00;62903.81;4980314;28;20023;-92
2024/01/13 02:18:59;;;;;;;5.88;1.23;;;;;;;-148.68;100.00;62903.81;4964591;28;20113;-93
2024/01/13 02:22:23;;;;;;;3.28;1.10;;;;;;;-148.68;100.00;62903.81;4964263;28;20113;-94
2024/01/13 02:25:47;;;;;;;2.15;0.93;;;;;;;-148.68;100.00;62903.81;4980000;28;20026;-93
2024/01/13 02:29:11;;;;;;;4.78;0.80;;;;;;;-148.68;100.00;62903.81;4964170;28;20077;-94
2024/01/13 02:32:35;;;;;;;4.03;1.80;;;;;;;-148.68;100.00;62903.81;4964156;28;20027;-93
2024/01/13 02:35:59;;;;;;;1.67;0.90;;;;;;;-148.68;100.00;62903.81;4980093;28;20034;-93
2024/01/13 02:39:23;;;;;;;2.50;0.98;;;;;;;-148.68;100.00;62903.81;4980454;28;20026;-92
2024/01/13 02:42:47;;;;;;;2.20;1.23;;;;;;;-148.68;100.00;62903.81;4979926;28;20034;-92
2024/01/13 02:46:11;;;;;;;1.83;1.10;;;;;;;-148.68;100.00;62903.81;4963967;28;20133;-92
2024/01/13 02:49:39;;;;;;;2.28;1.20;;;;;;;-148.68;100.00;62903.81;4963854;28;20027;-93
2024/01/13 02:53:03;;;;;;;4.05;1.05;;;;;;;-148.68;100.00;62903.81;4963708;28;20027;-93
2024/01/13 02:56:27;;;;;;;2.75;0.93;;;;;;;-148.68;100.00;62903.81;4964225;28;20478;-92
2024/01/13 02:59:51;;;;;;;2.97;1.33;;;;;;;-148.68;100.00;62903.81;4979456;28;20030;-93
2024/01/13 03:03:15;;;;;;;5.45;2.03;;;;;;;-148.68;100.00;62903.81;4979683;28;20023;-93
2024/01/13 03:06:39;;;;;;;4.72;1.83;;;;;;;-148.68;100.00;62903.81;4979768;28;20050;-93
2024/01/13 03:10:03;;;;;;;6.60;2.65;;;;;;;-148.68;100.00;62903.81;4964049;28;20030;-93
2024/01/13 03:13:27;;;;;;;7.28;2.80;;;;;;;-148.68;100.00;62903.81;4963271;28;20321;-92
2024/01/13 03:16:58;;;;;;;8.23;2.50;;;;;;;-148.68;100.00;62903.81;4963538;28;20447;-92
2024/01/13 03:20:23;;;;;;;3.17;1.55;;;;;;;-148.68;100.00;62903.81;4979416;28;20340;-93
2024/01/13 03:23:47;;;;;;;5.40;1.60;;;;;;;-148.68;100.00;62903.81;4978653;28;20192;-93
2024/01/13 03:27:11;;;;;;;4.50;1.52;;;;;;;-148.68;100.00;62903.81;4979109;28;20030;-92
2024/01/13 03:30:36;;;;;;;4.13;1.40;;;;;;;-148.68;100.00;62903.81;4963346;28;20022;-92
2024/01/13 03:34:00;;;;;;;1.92;1.10;;;;;;;-148.68;100.00;62903.81;4963042;28;20026;-91
2024/01/13 03:37:24;;;;;;;1.67;0.93;;;;;;;-148.68;100.00;62903.81;4963445;28;20129;-92
2024/01/13 03:40:48;;;;;;;1.77;0.80;;;;;;;-148.68;100.00;62903.81;4978792;28;20019;-93
2024/01/13 03:44:12;;;;;;;2.42;1.00;;;;;;;-148.68;100.00;62903.81;4978881;28;20133;-93
2024/01/13 03:47:36;;;;;;;2.85;1.35;;;;;;;-148.68;100.00;62903.81;4978686;28;20050;-92
2024/01/13 03:51:00;;;;;;;4.53;2.42;;;;;;;-148.68;100.00;62903.81;4962572;28;20094;-92
2024/01/13 03:54:24;;;;;;;2.85;1.40;;;;;;;-148.68;100.00;62903.81;4962642;28;20026;-92
2024/01/13 03:57:48;;;;;;;4.25;1.42;;;;;;;-148.68;100.00;62903.81;4962330;28;20018;-93
2024/01/13 04:01:12;;;;;;;2.05;1.20;;;;;;;-148.68;100.00;62903.81;4967311;28;20026;-92
2024/01/13 04:04:37;;;;;;;2.78;1.30;;;;;;;-148.68;100.00;62903.81;4962780;28;20130;-92
2024/01/13 04:08:03;;;;;;;1.67;1.00;;;;;;;-148.68;100.00;62903.81;4962103;28;20118;-92
2024/01/13 04:11:27;;;;;;;2.35;1.02;;;;;;;-148.68;100.00;62903.81;4962410;28;20344;-92
2024/01/13 04:14:51;;;;;;;2.08;1.20;;;;;;;-148.68;100.00;62903.81;4962591;28;20031;-92
2024/01/13 04:18:15;;;;;;;2.20;1.42;;;;;;;-148.68;100.00;62903.81;4962134;28;20046;-92
2024/01/13 04:21:39;;;;;;;2.30;0.98;;;;;;;-148.68;100.00;62903.81;4978131;28;20027;-92
2024/01/13 04:25:03;;;;;;;2.65;1.00;;;;;;;-148.68;100.00;62903.81;4962642;28;20305;-92
2024/01/13 04:28:27;;;;;;;2.25;1.00;;;;;;;-148.68;100.00;62903.81;4977901;28;20034;-92
2024/01/13 04:31:51;;;;;;;2.33;1.20;;;;;;;-148.68;100.00;62903.81;4979204;28;20019;-92
2024/01/13 04:35:15;;;;;;;3.22;1.08;;;;;;;-148.68;100.00;62903.81;4960886;28;20035;-92
2024/01/13 04:38:39;;;;;;;4.05;0.95;;;;;;;-148.68;100.00;62903.81;4961935;28;20022;-92
2024/01/13 04:42:03;;;;;;;3.22;1.48;;;;;;;-148.68;100.00;62903.81;4962061;28;20022;-93
2024/01/13 04:45:27;;;;;;;2.38;1.10;;;;;;;-148.68;100.00;62903.81;4961478;28;20030;-92
2024/01/13 04:48:51;;;;;;;2.22;1.05;;;;;;;-148.68;100.00;62903.81;4961304;28;20380;-93
2024/01/13 04:52:15;;;;;;;3.60;1.98;;;;;;;-148.68;100.00;62903.81;4961345;28;20041;-93
2024/01/13 04:55:39;;;;;;;3.05;1.17;;;;;;;-148.68;100.00;62903.81;4961417;28;20026;-94
2024/01/13 04:59:03;;;;;;;1.50;0.80;;;;;;;-148.68;100.00;62903.81;4961970;28;20054;-93
2024/01/13 05:02:27;;;;;;;3.17;1.10;;;;;;;-148.68;100.00;62903.81;4977448;28;20105;-92
2024/01/13 05:05:51;;;;;;;2.97;1.23;;;;;;;-148.68;100.00;62903.81;4961816;28;20022;-92
2024/01/13 05:09:15;;;;;;;1.83;1.10;;;;;;;-148.68;100.00;62903.81;4961238;28;20023;-93
2024/01/13 05:12:39;;;;;;;1.65;0.85;;;;;;;-148.68;100.00;62903.81;4977737;28;20026;-93
2024/01/13 05:16:03;;;;;;;4.55;0.82;;;;;;;-148.68;100.00;62903.81;4963963;28;20030;-93
2024/01/13 05:19:27;;;;;;;;;;;;;;;-148.68;100.00;62903.81;4981636;28;20057;-93
2024/01/13 05:22:51;;;;;;;0.77;0.70;;;;;;;-148.68;100.00;62903.81;4980370;28;19916;-93
2024/01/13 05:26:15;;;;;;;;;;;;;;;-148.68;100.00;62903.81;4980138;28;20030;-93
2024/01/13 05:29:39;;;;;;;1.85;1.50;;;;;;;-148.68;100.00;62903.81;4961401;28;19981;-92
2024/01/13 05:33:03;;;;;;;1.83;0.93;;;;;;;-148.68;100.00;62903.81;4961191;28;20031;-93
2024/01/13 05:36:27;;;;;;;4.75;0.88;;;;;;;-148.68;100.00;62903.81;4961341;28;20027;-92
2024/01/13 05:39:54;;;;;;;1.30;0.77;;;;;;;-148.68;100.00;62903.81;4977108;28;20087;-93
2024/01/13 05:43:18;;;;;;;1.38;0.65;;;;;;;-148.68;100.00;62903.81;4961384;28;20033;-93
2024/01/13 05:46:42;;;;;;;1.13;0.80;;;;;;;-148.68;100.00;62903.81;4963593;28;20062;-93
2024/01/13 05:50:07;;;;;;;1.60;0.80;;;;;;;-148.68;100.00;62903.81;4965011;28;20037;-93
2024/01/13 05:53:31;;;;;;;1.85;0.80;;;;;;;-148.68;100.00;62903.81;4964898;28;20061;-94
2024/01/13 05:56:55;;;;;;;0.68;0.60;;;;;;;-148.68;100.00;62903.81;4964767;28;20035;-93
2024/01/13 06:00:19;;;;;;;0.90;0.50;;;;;;;-148.68;100.00;62903.81;4965162;28;20133;-94
2024/01/13 06:03:43;;;;;;;1.58;0.90;;;;;;;-148.68;100.00;62903.81;4964618;28;20045;-94
2024/01/13 06:07:07;;;;;;;1.35;0.85;;;;;;;-148.68;100.00;62903.81;4980558;28;20023;-93
2024/01/13 06:10:31;;;;;;;2.42;0.93;;;;;;;-148.68;100.00;62903.81;4981543;28;20464;-93
2024/01/13 06:13:56;;;;;;;1.10;0.60;;;;;;;-148.68;100.00;62903.81;4964608;28;20321;-94
2024/01/13 06:17:20;;;;;;;3.38;1.02;;;;;;;-148.68;100.00;62903.81;4980419;28;20018;-94
2024/01/13 06:20:44;;;;;;;0.88;0.68;;;;;;;-148.68;100.00;62903.81;4964200;28;20027;-92
2024/01/13 06:24:08;;;;;;;0.63;0.57;;;;;;;-148.68;100.00;62903.81;4980219;28;20030;-93
2024/01/13 06:27:32;;;;;;;;;;;;;;;-148.68;100.00;62903.81;4964801;28;20027;-93
2024/01/13 06:30:56;;;;;;;1.30;0.70;;;;;;;-148.68;100.00;62903.81;4980180;28;19921;-93
2024/01/13 06:34:20;;;;;;;1.45;0.77;;;;;;;-148.68;100.00;62903.81;4980101;28;20023;-93
2024/01/13 06:37:44;;;;;;;3.15;0.70;;;;;;;-148.68;100.00;62903.81;4964010;28;20041;-93
2024/01/13 06:41:09;;;;;;;2.20;1.05;;;;;;;-148.68;100.00;62903.81;4979841;28;20364;-94
2024/01/13 06:44:33;;;;;;;;;;;;;;;-148.68;100.00;62903.81;4964023;28;20490;-93
2024/01/13 06:47:57;;;;;;;3.00;0.80;;;;;;;-148.68;100.00;62903.81;4979802;28;19910;-93
2024/01/13 06:51:21;;;;;;;;;;;;;;;-148.68;100.00;62903.81;4980286;28;20073;-93
2024/01/13 06:54:45;;;;;;;1.27;0.70;;;;;;;-148.68;100.00;62903.81;4963978;28;19910;-93
2024/01/13 06:58:09;;;;;;;2.30;0.60;;;;;;;-148.68;100.00;62903.81;4979238;28;20035;-93
2024/01/13 07:01:33;;;;;;;1.30;0.80;;;;;;;-148.68;100.00;62903.81;4963911;28;20499;-93
2024/01/13 07:04:59;;;;;;;1.42;0.60;;;;;;;-148.68;100.00;62903.81;4963484;28;20475;-92
2024/01/13 07:08:23;;;;;;;0.90;0.60;;;;;;;-148.68;100.00;62903.81;4979279;28;20019;-93
2024/01/13 07:11:48;;;;;;;1.40;0.82;;;;;;;-148.68;100.00;62903.81;4978941;28;20098;-93
2024/01/13 07:15:12;;;;;;;6.63;0.68;;;;;;;-148.68;100.00;62903.81;4905290;28;20059;-94
2024/01/13 07:18:36;;;;;;;3.70;0.90;;;;;;;-148.68;100.00;62903.81;4906849;29;20032;-93
2024/01/13 07:22:01;;;;;;;1.30;0.70;;;;;;;-148.68;100.00;62903.81;4905954;29;20027;-93
2024/01/13 07:25:25;;;;;;;2.10;1.08;;;;;;;-148.68;100.00;62903.81;4921941;29;20032;-93
2024/01/13 07:28:49;;;;;;;2.20;1.05;;;;;;;-148.68;100.00;62903.81;4921716;29;20032;-93
2024/01/13 07:32:13;;;;;;;5.68;1.98;;;;;;;-148.68;100.00;62903.81;4921537;29;20393;-93
2024/01/13 07:35:39;;;;;;;4.38;1.50;;;;;;;-148.68;100.00;62903.81;4937485;29;20035;-92
2024/01/13 07:39:03;;;;;;;2.45;1.33;;;;;;;-148.68;100.00;62903.81;4921542;29;20110;-93
2024/01/13 07:42:27;;;;;;;5.05;1.63;;;;;;;-148.68;100.00;62903.81;4921423;29;20357;-94
2024/01/13 07:45:51;;;;;;;5.05;1.30;;;;;;;-148.68;100.00;62903.81;4921164;29;20119;-92
2024/01/13 07:49:15;;;;;;;2.15;1.10;;;;;;;-148.68;100.00;62903.81;4921175;29;20131;-92
2024/01/13 07:52:40;;;;;;;2.88;1.08;;;;;;;-148.68;100.00;62903.81;4937506;29;20075;-91
2024/01/13 07:56:14;;;;;;;2.17;1.10;;;;;;;-148.68;100.00;62903.81;4921157;29;20075;-93
2024/01/13 07:59:38;;;;;;;2.45;1.00;;;;;;;-148.68;100.00;62903.81;4936824;29;20087;-92
2024/01/13 08:03:04;;;;;;;1.83;0.88;;;;;;;-148.68;100.00;62903.81;4902147;29;20029;-91
2024/01/13 08:06:29;;;;;;;3.88;1.30;;;;;;;-148.68;100.00;62903.81;4912712;29;20036;-91
2024/01/13 08:09:54;;;;;;;2.15;0.90;;;;;;;-148.68;100.00;62903.81;4920072;29;20111;-93
2024/01/13 08:13:18;;;;;;;1.42;0.80;;;;;;;-148.68;100.00;62903.81;4921455;29;20040;-91
2024/01/13 08:16:42;;;;;;;2.38;1.00;;;;;;;-148.68;100.00;62903.81;4917439;29;20036;-91
2024/01/13 08:20:07;;;;;;;2.78;1.15;;;;;;;-148.68;100.00;62903.81;4920908;29;20028;-92
2024/01/13 08:23:31;;;;;;;1.45;0.80;;;;;;;-148.68;100.00;62903.81;4936802;29;20031;-92
2024/01/13 08:27:12;;;;;;;4.63;1.52;;;;;;;-148.68;100.00;62903.81;4910297;29;20422;-91
2024/01/13 08:30:36;;;;;;;1.90;0.98;;;;;;;-148.68;100.00;62903.81;4905087;29;20036;-91
2024/01/13 08:33:59;;;;;;;2.40;1.15;;;;;;;-148.68;100.00;62903.81;4931801;29;20072;-91
2024/01/13 08:37:28;;;;;;;2.55;1.02;;;;;;;-148.68;100.00;62903.81;4905470;29;20055;-90
2024/01/13 08:40:55;;;;;;;1.38;0.85;;;;;;;-148.68;100.00;62903.81;4904866;29;20112;-90
2024/01/13 08:44:22;;;;;;;2.10;0.95;;;;;;;-148.68;100.00;62903.81;4905202;29;20060;-91
2024/01/13 08:47:46;;;;;;;2.10;1.05;;;;;;;-148.68;100.00;62903.81;4920295;29;20087;-92
2024/01/13 08:51:11;;;;;;;1.95;0.95;;;;;;;-148.68;100.00;62903.81;4914742;29;20093;-91
2024/01/13 08:54:36;;;;;;;2.28;1.02;;;;;;;-148.68;100.00;62903.81;4920557;29;20043;-92
2024/01/13 08:58:02;;;;;;;1.98;0.95;;;;;;;-148.68;100.00;62903.81;4936169;29;20067;-90
2024/01/13 09:01:26;;;;;;;1.88;1.23;;;;;;;-148.68;100.00;62903.81;4927817;29;20387;-91
2024/01/13 09:04:51;;;;;;;2.08;1.08;;;;;;;-148.68;100.00;62903.81;4905161;29;20075;-91
2024/01/13 09:08:14;;;;;;;2.78;1.33;;;;;;;-148.68;100.00;62903.81;4933870;29;20032;-89
2024/01/13 09:11:41;;;;;;;2.92;1.42;;;;;;;-148.68;100.00;62903.81;4918415;29;20032;-91
2024/01/13 09:15:06;;;;;;;2.80;1.25;;;;;;;-148.68;100.00;62903.81;4917182;29;20103;-91
2024/01/13 09:18:30;;;;;;;2.88;1.20;;;;;;;-148.68;100.00;62903.81;4904128;29;20088;-91
2024/01/13 09:21:54;;;;;;;3.25;1.30;;;;;;;-148.68;100.00;62903.81;4915448;29;20039;-90
2024/01/13 09:25:21;;;;;;;3.42;1.38;;;;;;;-148.68;100.00;62903.81;4924289;29;20043;-91
2024/01/13 09:28:47;;;;;;;2.90;1.10;;;;;;;-148.68;100.00;62903.81;4939995;29;20028;-90
2024/01/13 09:32:11;;;;;;;2.75;1.20;;;;;;;-148.68;100.00;62903.81;4938765;29;20052;-91
2024/01/13 09:35:37;;;;;;;2.95;1.08;;;;;;;-148.68;100.00;62903.81;4939593;29;20062;-91
2024/01/13 09:39:01;;;;;;;4.05;1.20;;;;;;;-148.68;100.00;62903.81;4939840;29;20054;-91
2024/01/13 09:42:38;;;;;;;2.38;1.20;;;;;;;-148.68;100.00;62903.81;4939321;29;20390;-91
2024/01/13 09:46:03;;;;;;;2.83;1.00;;;;;;;-148.68;100.00;62903.81;4923672;29;20409;-91
2024/01/13 09:49:31;;;;;;;3.30;1.02;;;;;;;-148.68;100.00;62903.81;4908904;29;20105;-91
2024/01/13 09:52:56;;;;;;;1.83;1.10;;;;;;;-148.68;100.00;62903.81;4904984;29;20076;-91
2024/01/13 09:56:38;;;;;;;1.95;1.00;;;;;;;-148.68;100.00;62903.81;4904175;29;20038;-92
2024/01/13 10:00:02;;;;;;;1.40;0.88;;;;;;;-148.68;100.00;62903.81;4919734;29;20024;-91
2024/01/13 10:03:26;;;;;;;2.83;1.40;;;;;;;-148.68;100.00;62903.81;4907610;29;20446;-90
2024/01/13 10:06:51;;;;;;;4.50;1.15;;;;;;;-148.68;100.00;62903.81;4922554;29;20040;-91
2024/01/13 10:10:16;;;;;;;2.42;1.30;;;;;;;-148.68;100.00;62903.81;4924111;29;20063;-90
2024/01/13 10:13:41;;;;;;;;;;;;;;;-148.68;100.00;62903.81;4939333;29;20032;-91
2024/01/13 10:17:05;;;;;;;2.70;1.30;;;;;;;-148.68;100.00;62903.81;4939086;29;20221;-90
2024/01/13 10:20:38;;;;;;;1.75;1.00;;;;;;;-148.68;100.00;62903.81;4939167;29;20024;-91
2024/01/13 10:24:02;;;;;;;2.70;1.27;;;;;;;-148.68;100.00;62903.81;4938261;29;20075;-90
2024/01/13 10:27:27;;;;;;;1.60;1.13;;;;;;;-148.68;100.00;62903.81;4938380;29;20060;-90
2024/01/13 10:30:51;;;;;;;3.70;1.35;;;;;;;-148.68;100.00;62903.81;4919422;29;20036;-90
2024/01/13 10:34:16;;;;;;;2.45;1.20;;;;;;;-148.68;100.00;62903.81;4936682;29;20051;-91
2024/01/13 10:37:40;;;;;;;4.22;1.35;;;;;;;-148.68;100.00;62903.81;4921965;29;20095;-90
2024/01/13 10:41:05;;;;;;;2.65;1.17;;;;;;;-148.68;100.00;62903.81;4922598;29;20024;-90
2024/01/13 10:44:30;;;;;;;3.42;1.88;;;;;;;-148.68;100.00;62903.81;4915937;29;20026;-90
2024/01/13 10:48:01;;;;;;;4.20;1.30;;;;;;;-148.68;100.00;62903.81;4921867;29;20032;-89
2024/01/13 10:51:25;;;;;;;5.78;1.35;;;;;;;-148.68;100.00;62903.81;4937824;29;20028;-89
2024/01/13 10:54:49;;;;;;;3.53;1.48;;;;;;;-148.68;100.00;62903.81;4922939;29;20085;-89
2024/01/13 10:58:14;;;;;;;3.50;1.50;;;;;;;-148.68;100.00;62903.81;4921667;29;20119;-89
2024/01/13 11:01:38;;;;;;;;;;;;;;;-148.68;100.00;62903.81;4922403;29;20447;-89
2024/01/13 11:05:02;;;;;;;2.10;1.02;;;;;;;-148.68;100.00;62903.81;4923182;29;20019;-89
2024/01/13 11:08:27;;;;;;;;;;;;;;;-148.68;100.00;62903.81;4906981;29;20453;-90
2024/01/13 11:11:54;;;;;;;4.55;1.85;;;;;;;-148.68;100.00;62903.81;4921650;29;19984;-89
2024/01/13 11:15:31;;;;;;;4.82;1.60;;;;;;;-148.68;100.00;62903.81;4911906;29;20438;-90
2024/01/13 11:18:58;;;;;;;2.03;1.30;;;;;;;-148.68;100.00;62903.81;4905721;29;20032;-88
2024/01/13 11:22:33;;;;;;;3.85;1.60;;;;;;;-148.68;100.00;62903.81;4922975;29;20026;-90
2024/01/13 11:25:57;;;;;;;2.03;1.10;;;;;;;-148.68;100.00;62903.81;4916580;29;20035;-90
2024/01/13 11:29:25;;;;;;;3.42;1.63;;;;;;;-148.68;100.00;62903.81;4905624;29;20034;-93
2024/01/13 11:32:56;;;;;;;3.13;1.45;;;;;;;-148.68;100.00;62903.81;4922068;29;20042;-92
2024/01/13 11:36:20;;;;;;;2.17;1.33;;;;;;;-148.68;100.00;62903.81;4905814;29;20036;-93
2024/01/13 11:39:45;;;;;;;3.85;1.70;;;;;;;-148.68;100.00;62903.81;4906086;29;20091;-92
2024/01/13 11:43:18;;;;;;;4.43;1.58;;;;;;;-148.68;100.00;62903.81;4905633;29;20438;-93
2024/01/13 11:47:05;;;;;;;3.97;1.35;;;;;;;-148.68;100.00;62903.81;4921654;29;20032;-93
2024/01/13 11:50:36;;;;;;;3.58;1.70;;;;;;;-148.68;100.00;62903.81;4928378;29;20039;-93
2024/01/13 11:54:00;;;;;;;22.17;9.45;;;;;;;-148.68;100.00;62903.81;4921656;29;20055;-93
2024/01/13 11:57:27;;;;;;;139.65;48.28;;;;;;;-148.68;100.00;62903.81;4921339;29;20068;-93
2024/01/13 12:00:52;;;;;;;246.90;77.78;;;;;;;-148.68;100.00;62903.81;4921265;29;20441;-93
2024/01/13 12:04:16;;;;;;;288.67;102.90;;;;;;;-148.68;100.00;62903.81;4920928;29;20020;-92
2024/01/13 12:07:41;;;;;;;8.48;4.00;;;;;;;-148.68;100.00;62903.81;4920773;29;20032;-93
2024/01/13 12:11:05;;;;;;;156.52;58.42;;;;;;;-148.68;100.00;62903.81;4920858;29;20032;-93
2024/01/13 12:14:30;;;;;;;19.60;8.07;;;;;;;-148.68;100.00;62903.81;4920600;29;20346;-93
2024/01/13 12:17:54;;;;;;;;;;;;;;;-148.68;100.00;62903.81;4905371;29;20095;-93
2024/01/13 12:21:21;;;;;;;30.40;15.75;;;;;;;-148.68;100.00;62903.81;4920702;29;20228;-93
2024/01/13 12:24:48;;;;;;;30.98;14.98;;;;;;;-148.68;100.00;62903.81;4920493;29;20055;-93
2024/01/13 12:28:13;;;;;;;27.83;15.27;;;;;;;-148.68;100.00;62903.81;4902108;29;20029;-93
2024/01/13 12:31:40;;;;;;;6.88;3.17;;;;;;;-148.68;100.00;62903.81;4901389;29;20032;-93
2024/01/13 12:35:12;;;;;;;5.50;2.88;;;;;;;-148.68;100.00;62903.81;4917206;29;20039;-93
2024/01/13 12:38:38;;;;;;;8.13;3.75;;;;;;;-148.68;100.00;62903.81;4904750;29;20086;-94
2024/01/13 12:42:04;;;;;;;16.38;7.90;;;;;;;-148.68;100.00;62903.81;4904822;29;20024;-93
2024/01/13 12:45:28;;;;;;;9.68;3.70;;;;;;;-148.68;100.00;62903.81;4936879;29;20036;-94
2024/01/13 12:48:52;;;;;;;20.75;9.68;;;;;;;-148.68;100.00;62903.81;4920654;29;20458;-94
2024/01/13 12:52:16;;;;;;;38.58;16.88;;;;;;;-148.68;100.00;62903.81;4920164;29;20035;-94
2024/01/13 12:55:41;;;;;;;14.88;6.10;;;;;;;-148.68;100.00;62903.81;4920506;29;20028;-94
2024/01/13 12:59:06;;;;;;;33.72;13.85;;;;;;;-148.68;100.00;62903.81;4936646;29;20032;-94
2024/01/13 13:02:29;;;;;;;;;;;;;;;-148.68;100.00;62903.81;4922355;29;20109;-94
2024/01/13 13:05:53;;;;;;;37.45;14.10;;;;;;;-148.68;100.00;62903.81;4921066;29;19911;-94
2024/01/13 13:09:17;;;;;;;34.10;12.15;;;;;;;-148.68;100.00;62903.81;4922174;29;20032;-94
2024/01/13 13:12:42;;;;;;;31.42;10.80;;;;;;;-148.68;100.00;62903.81;4904402;29;20032;-94
2024/01/13 13:20:27;;;;;;;31.17;13.43;;;;;;;-148.68;100.00;62903.81;4923491;29;20039;-94
2024/01/13 13:23:51;;;;;;;32.33;15.95;;;;;;;-148.68;100.00;62903.81;4907074;29;20028;-94
2024/01/13 13:27:15;;;;;;;31.15;15.65;;;;;;;-148.68;100.00;62903.81;4907000;29;20043;-94
2024/01/13 13:30:40;;;;;;;12.48;5.53;;;;;;;-148.68;100.00;62903.81;4924361;29;20039;-93
2024/01/13 13:34:04;;;;;;;15.40;6.50;;;;;;;-148.68;100.00;62903.81;4922298;29;20059;-94
2024/01/13 13:37:28;;;;;;;12.07;6.63;;;;;;;-148.68;100.00;62903.81;4923177;29;20032;-94
2024/01/13 13:40:52;;;;;;;16.50;8.68;;;;;;;-148.68;100.00;62903.81;4921861;29;20028;-93
2024/01/13 13:44:16;;;;;;;11.87;5.63;;;;;;;-148.68;100.00;62903.81;4919871;29;20043;-93
2024/01/13 13:47:40;;;;;;;12.67;6.47;;;;;;;-148.68;100.00;62903.81;4921777;29;20739;-94
2024/01/13 13:51:06;;;;;;;12.70;6.00;;;;;;;-148.68;100.00;62903.81;4921969;29;20028;-92
2024/01/13 13:54:30;;;;;;;13.18;5.88;;;;;;;-148.68;100.00;62903.81;4938362;29;20309;-93
2024/01/13 13:57:54;;;;;;;9.27;4.60;;;;;;;-148.68;100.00;62903.81;4938851;29;20341;-93
2024/01/13 14:01:20;;;;;;;16.30;6.47;;;;;;;-148.68;100.00;62903.81;4938260;29;20264;-94
2024/01/13 14:04:55;;;;;;;10.05;5.15;;;;;;;-148.68;100.00;62903.81;4937070;29;20558;-95
2024/01/13 14:08:26;;;;;;;9.95;4.57;;;;;;;-148.68;100.00;62903.81;4940702;29;20035;-95
2024/01/13 14:11:50;;;;;;;12.25;5.35;;;;;;;-148.68;100.00;62903.81;4941279;29;20059;-93
2024/01/13 14:15:15;;;;;;;11.57;5.30;;;;;;;-148.68;100.00;62903.81;4939133;29;20032;-94
2024/01/13 14:18:39;;;;;;;;;;;;;;;-148.68;100.00;62903.81;4939435;29;20028;-94
2024/01/13 14:22:03;;;;;;;11.43;5.63;;;;;;;-148.68;100.00;62903.81;4923587;29;19944;-95
2024/01/13 14:25:37;;;;;;;;;;;;;;;;;;;;;
2024/01/13 14:29:10;;;;;;;15.97;7.13;;;;;;;-148.68;100.00;62903.81;4941488;29;20026;-93
2024/01/13 14:32:37;;;;;;;14.48;7.05;;;;;;;-148.68;100.00;62903.81;4957917;29;20306;-93
2024/01/13 14:36:02;;;;;;;13.43;6.78;;;;;;;-148.68;100.00;62903.81;4903375;29;20036;-92
2024/01/13 14:39:26;;;;;;;16.70;7.55;;;;;;;-148.68;100.00;62903.81;4903745;29;20029;-92
2024/01/13 14:42:53;;;;;;;16.77;7.43;;;;;;;-148.68;100.00;62903.81;4888358;29;20029;-93
2024/01/13 14:46:18;;;;;;;14.45;7.35;;;;;;;-148.68;100.00;62903.81;4926027;29;20130;-93
2024/01/13 14:49:45;;;;;;;17.40;8.02;;;;;;;-148.68;100.00;62903.81;4925918;29;20504;-93
2024/01/13 14:53:12;;;;;;;25.50;10.20;;;;;;;-148.68;100.00;62903.81;4941449;29;20127;-92
2024/01/13 14:56:36;;;;;;;25.00;11.45;;;;;;;-148.68;100.00;62903.81;4941782;29;20120;-94
2024/01/13 15:00:05;;;;;;;20.92;8.65;;;;;;;-148.68;100.00;62903.81;4942378;29;20464;-95
2024/01/13 15:03:49;;;;;;;26.65;11.68;;;;;;;-148.68;100.00;62903.81;4946737;29;20032;-95
2024/01/13 15:07:16;;;;;;;60.03;23.52;;;;;;;-148.68;100.00;62903.81;4933757;29;20035;-95
2024/01/13 15:10:44;;;;;;;36.70;15.65;;;;;;;-148.68;100.00;62903.81;4945512;29;20393;-95
2024/01/13 15:14:08;;;;;;;31.73;14.85;;;;;;;-148.68;100.00;62903.81;4951795;29;20040;-93
2024/01/13 15:17:41;;;;;;;63.67;27.73;;;;;;;-148.68;100.00;62903.81;4943192;29;20035;-95
2024/01/13 15:21:06;;;;;;;37.65;17.40;;;;;;;-148.68;100.00;62903.81;4942500;29;20039;-92
2024/01/13 15:24:30;;;;;;;36.60;16.35;;;;;;;-148.68;100.00;62903.81;4902932;29;20041;-92
2024/01/13 15:27:58;;;;;;;38.78;16.30;;;;;;;-148.68;100.00;62903.81;4902620;29;20028;-93
2024/01/13 15:31:22;;;;;;;45.53;19.83;;;;;;;-148.68;100.00;62903.81;4903007;29;20039;-92
2024/01/13 15:34:46;;;;;;;;;;;;;;;-148.68;100.00;62903.81;4902783;29;20036;-91
2024/01/13 15:38:13;;;;;;;67.55;29.20;;;;;;;-148.68;100.00;62903.81;4918222;29;20344;-92
2024/01/13 15:41:37;;;;;;;57.13;23.50;;;;;;;-148.68;100.00;62903.81;4917829;29;20036;-91